createdAt,value
2018-11-05T00:00:22.503Z,72.40
2018-11-05T00:02:52.346Z,72.40
2018-11-05T00:05:21.926Z,72.40
2018-11-05T00:07:51.022Z,72.40
2018-11-05T00:10:19.884Z,72.40
2018-11-05T00:12:48.779Z,72.40
2018-11-05T00:15:17.629Z,72.60
2018-11-05T00:17:46.454Z,72.60
2018-11-05T00:20:15.274Z,72.40
2018-11-05T00:22:44.378Z,72.60
2018-11-05T00:25:13.808Z,72.70
2018-11-05T00:27:42.950Z,72.70
2018-11-05T00:30:13.023Z,72.60
2018-11-05T00:32:42.169Z,72.60
2018-11-05T00:35:11.150Z,72.60
2018-11-05T00:37:40.240Z,72.70
2018-11-05T00:40:15.245Z,72.60
2018-11-05T00:42:45.105Z,72.70
2018-11-05T00:45:14.879Z,72.60
2018-11-05T00:47:44.264Z,72.70
2018-11-05T00:50:14.569Z,72.60
2018-11-05T00:52:43.387Z,72.70
2018-11-05T00:55:12.848Z,72.70
2018-11-05T00:57:41.701Z,72.70
2018-11-05T01:00:12.779Z,72.70
2018-11-05T01:02:42.193Z,72.60
2018-11-05T01:05:12.410Z,72.70
2018-11-05T01:07:41.902Z,72.70
2018-11-05T01:10:12.006Z,72.70
2018-11-05T01:12:40.861Z,72.80
2018-11-05T01:15:13.469Z,72.80
2018-11-05T01:17:42.286Z,72.80
2018-11-05T01:20:12.189Z,72.70
2018-11-05T01:22:41.190Z,72.80
2018-11-05T01:25:10.018Z,72.70
2018-11-05T01:27:38.843Z,72.70
2018-11-05T01:30:10.283Z,72.70
2018-11-05T01:32:39.082Z,72.70
2018-11-05T01:35:10.170Z,72.70
2018-11-05T01:37:38.992Z,72.70
2018-11-05T01:40:11.866Z,72.70
2018-11-05T01:42:40.780Z,72.70
2018-11-05T01:45:10.848Z,72.70
2018-11-05T01:47:40.650Z,72.70
2018-11-05T01:50:11.831Z,72.50
2018-11-05T01:52:43.932Z,72.70
2018-11-05T01:55:12.770Z,72.70
2018-11-05T01:57:41.966Z,72.70
2018-11-05T02:00:14.184Z,72.70
2018-11-05T02:02:43.327Z,72.70
2018-11-05T02:05:12.262Z,72.70
2018-11-05T02:07:42.336Z,72.70
2018-11-05T02:10:13.658Z,72.70
2018-11-05T02:12:42.668Z,73.10
2018-11-05T02:15:11.961Z,72.60
2018-11-05T02:17:42.200Z,72.60
2018-11-05T02:20:11.498Z,72.60
2018-11-05T02:22:40.786Z,72.60
2018-11-05T02:25:10.830Z,72.80
2018-11-05T02:27:39.914Z,72.60
2018-11-05T02:30:12.753Z,72.60
2018-11-05T02:32:41.590Z,72.60
2018-11-05T02:35:12.221Z,72.50
2018-11-05T02:37:41.868Z,72.50
2018-11-05T02:40:13.683Z,73.10
2018-11-05T02:42:43.131Z,72.50
2018-11-05T02:45:13.313Z,72.50
2018-11-05T02:47:42.634Z,73.10
2018-11-05T02:50:12.853Z,72.50
2018-11-05T02:52:42.650Z,72.40
2018-11-05T02:55:11.455Z,72.20
2018-11-05T02:57:41.460Z,72.30
2018-11-05T03:00:14.338Z,72.20
2018-11-05T03:02:43.447Z,72.20
2018-11-05T03:05:13.800Z,72.20
2018-11-05T03:07:43.052Z,72.20
2018-11-05T03:10:12.471Z,72.20
2018-11-05T03:12:41.973Z,72.20
2018-11-05T03:15:13.388Z,72.10
2018-11-05T03:17:42.276Z,72.20
2018-11-05T03:20:12.433Z,72.10
2018-11-05T03:22:41.831Z,72.10
2018-11-05T03:25:10.664Z,72.80
2018-11-05T03:27:39.915Z,72.00
2018-11-05T03:30:13.485Z,72.00
2018-11-05T03:32:42.396Z,72.10
2018-11-05T03:35:12.247Z,72.00
2018-11-05T03:37:42.491Z,72.00
2018-11-05T03:40:12.052Z,72.00
2018-11-05T03:42:41.762Z,72.00
2018-11-05T03:45:12.500Z,72.10
2018-11-05T03:47:41.320Z,72.00
2018-11-05T03:50:13.210Z,72.00
2018-11-05T03:52:42.331Z,72.00
2018-11-05T03:55:11.203Z,71.90
2018-11-05T03:57:40.310Z,71.90
2018-11-05T04:00:11.268Z,71.90
2018-11-05T04:02:40.202Z,71.80
2018-11-05T04:05:09.580Z,72.00
2018-11-05T04:07:38.992Z,71.60
2018-11-05T04:10:09.622Z,71.60
2018-11-05T04:12:38.486Z,71.60
2018-11-05T04:15:08.984Z,71.50
2018-11-05T04:17:37.786Z,71.50
2018-11-05T04:20:09.562Z,71.40
2018-11-05T04:22:38.458Z,71.30
2018-11-05T04:25:08.523Z,71.30
2018-11-05T04:27:37.415Z,71.40
2018-11-05T04:30:10.251Z,71.30
2018-11-05T04:32:39.254Z,71.30
2018-11-05T04:35:09.480Z,71.20
2018-11-05T04:37:38.306Z,71.20
2018-11-05T04:40:09.066Z,71.20
2018-11-05T04:42:37.933Z,71.10
2018-11-05T04:45:10.364Z,71.00
2018-11-05T04:47:39.215Z,71.10
2018-11-05T04:50:10.405Z,71.00
2018-11-05T04:52:40.719Z,71.50
2018-11-05T04:55:09.565Z,70.80
2018-11-05T04:57:38.495Z,71.00
2018-11-05T05:00:13.289Z,70.70
2018-11-05T05:02:42.530Z,70.70
2018-11-05T05:05:12.540Z,70.70
2018-11-05T05:07:41.439Z,70.60
2018-11-05T05:10:10.630Z,70.60
2018-11-05T05:12:40.426Z,70.60
2018-11-05T05:15:09.835Z,70.70
2018-11-05T05:17:39.079Z,70.70
2018-11-05T05:20:11.566Z,70.60
2018-11-05T05:22:40.497Z,70.60
2018-11-05T05:25:09.255Z,70.60
2018-11-05T05:27:38.072Z,70.60
2018-11-05T05:30:14.271Z,70.60
2018-11-05T05:32:43.352Z,70.70
2018-11-05T05:35:12.244Z,70.60
2018-11-05T05:37:41.750Z,71.30
2018-11-05T05:40:10.847Z,70.60
2018-11-05T05:42:40.446Z,70.60
2018-11-05T05:45:10.379Z,71.30
2018-11-05T05:47:39.258Z,70.60
2018-11-05T05:50:12.622Z,70.60
2018-11-05T05:52:43.401Z,70.40
2018-11-05T05:55:12.213Z,70.50
2018-11-05T05:57:41.087Z,70.40
2018-11-05T06:00:12.596Z,70.40
2018-11-05T06:02:41.463Z,70.40
2018-11-05T06:05:11.731Z,70.40
2018-11-05T06:07:41.139Z,70.40
2018-11-05T06:10:11.328Z,70.10
2018-11-05T06:12:40.245Z,70.70
2018-11-05T06:15:11.570Z,70.30
2018-11-05T06:17:40.687Z,70.30
2018-11-05T06:20:14.191Z,70.30
2018-11-05T06:22:44.023Z,70.20
2018-11-05T06:25:12.839Z,70.10
2018-11-05T06:27:41.755Z,70.10
2018-11-05T06:30:17.135Z,70.10
2018-11-05T06:32:46.848Z,70.10
2018-11-05T06:35:15.711Z,70.00
2018-11-05T06:37:44.507Z,69.90
2018-11-05T06:40:16.056Z,69.90
2018-11-05T06:42:45.207Z,69.90
2018-11-05T06:45:15.309Z,69.90
2018-11-05T06:47:44.991Z,69.80
2018-11-05T06:50:16.667Z,69.70
2018-11-05T06:52:46.118Z,69.80
2018-11-05T06:55:15.463Z,69.80
2018-11-05T06:57:44.362Z,69.60
2018-11-05T07:00:20.106Z,69.60
2018-11-05T07:02:48.933Z,69.60
2018-11-05T07:05:17.837Z,69.60
2018-11-05T07:07:46.690Z,69.60
2018-11-05T07:10:16.294Z,69.60
2018-11-05T07:12:45.415Z,69.50
2018-11-05T07:15:15.333Z,69.50
2018-11-05T07:17:45.202Z,69.40
2018-11-05T07:20:15.556Z,69.50
2018-11-05T07:22:45.565Z,70.10
2018-11-05T07:25:15.062Z,69.50
2018-11-05T07:27:44.340Z,69.40
2018-11-05T07:30:16.224Z,69.40
2018-11-05T07:32:53.011Z,69.40
2018-11-05T07:35:21.847Z,69.30
2018-11-05T07:37:50.713Z,69.30
2018-11-05T07:40:20.181Z,69.20
2018-11-05T07:42:49.485Z,69.20
2018-11-05T07:45:22.463Z,69.20
2018-11-05T07:47:51.321Z,69.10
2018-11-05T07:50:21.302Z,69.10
2018-11-05T07:52:51.182Z,69.60
2018-11-05T07:55:20.325Z,68.90
2018-11-05T07:57:49.986Z,68.30
2018-11-05T08:00:24.588Z,68.60
2018-11-05T08:02:54.905Z,68.60
2018-11-05T08:05:24.245Z,68.40
2018-11-05T08:07:53.359Z,68.40
2018-11-05T08:10:22.192Z,68.10
2018-11-05T08:12:51.015Z,68.10
2018-11-05T08:15:21.147Z,67.90
2018-11-05T08:17:50.884Z,68.00
2018-11-05T08:20:19.858Z,67.80
2018-11-05T08:22:48.932Z,67.60
2018-11-05T08:25:18.141Z,67.70
2018-11-05T08:27:46.991Z,68.10
2018-11-05T08:30:20.127Z,67.50
2018-11-05T08:32:49.027Z,67.40
2018-11-05T08:35:17.890Z,67.30
2018-11-05T08:37:47.421Z,67.20
2018-11-05T08:40:18.988Z,67.30
2018-11-05T08:42:48.946Z,67.30
2018-11-05T08:45:18.887Z,67.10
2018-11-05T08:47:47.736Z,67.00
2018-11-05T08:50:17.985Z,67.00
2018-11-05T08:52:46.778Z,66.90
2018-11-05T08:55:18.314Z,66.80
2018-11-05T08:57:47.262Z,66.90
2018-11-05T09:00:23.097Z,66.80
2018-11-05T09:02:52.510Z,66.90
2018-11-05T09:05:21.488Z,66.90
2018-11-05T09:07:51.203Z,66.90
2018-11-05T09:10:20.201Z,67.50
2018-11-05T09:12:48.898Z,66.90
2018-11-05T09:15:19.819Z,67.70
2018-11-05T09:17:49.015Z,67.10
2018-11-05T09:20:18.872Z,67.80
2018-11-05T09:22:48.989Z,67.10
2018-11-05T09:25:18.041Z,67.20
2018-11-05T09:27:46.961Z,67.30
2018-11-05T09:30:18.392Z,66.90
2018-11-05T09:32:47.580Z,67.30
2018-11-05T09:35:16.442Z,67.30
2018-11-05T09:37:45.471Z,67.30
2018-11-05T09:40:17.657Z,67.30
2018-11-05T09:42:47.132Z,67.40
2018-11-05T09:45:18.725Z,67.40
2018-11-05T09:47:47.885Z,67.50
2018-11-05T09:50:17.330Z,67.50
2018-11-05T09:52:46.209Z,67.50
2018-11-05T09:55:15.584Z,67.70
2018-11-05T09:57:44.925Z,67.60
2018-11-05T10:00:17.336Z,67.70
2018-11-05T10:02:51.740Z,67.50
2018-11-05T10:05:20.676Z,67.50
2018-11-05T10:07:49.362Z,67.40
2018-11-05T10:10:18.669Z,67.50
2018-11-05T10:12:47.422Z,68.00
2018-11-05T10:15:17.259Z,67.20
2018-11-05T10:17:46.157Z,67.10
2018-11-05T10:20:20.087Z,67.00
2018-11-05T10:22:49.022Z,66.90
2018-11-05T10:25:18.187Z,66.60
2018-11-05T10:27:47.457Z,66.60
2018-11-05T10:30:25.391Z,66.50
2018-11-05T10:32:54.295Z,66.50
2018-11-05T10:35:56.955Z,66.30
2018-11-05T10:38:26.168Z,66.20
2018-11-05T10:40:55.014Z,66.00
2018-11-05T10:43:24.520Z,65.80
2018-11-05T10:45:53.327Z,65.40
2018-11-05T10:48:22.163Z,65.20
2018-11-05T10:50:51.008Z,65.00
2018-11-05T10:53:19.898Z,64.50
2018-11-05T10:55:48.734Z,64.50
2018-11-05T10:58:18.065Z,64.20
2018-11-05T11:00:52.310Z,64.20
2018-11-05T11:03:21.637Z,64.00
2018-11-05T11:05:50.464Z,63.60
2018-11-05T11:08:19.300Z,63.60
2018-11-05T11:10:48.162Z,63.50
2018-11-05T11:13:17.017Z,63.60
2018-11-05T11:15:45.902Z,64.20
2018-11-05T11:18:14.800Z,63.30
2018-11-05T11:20:43.659Z,63.10
2018-11-05T11:23:12.484Z,62.80
2018-11-05T11:25:41.454Z,62.60
2018-11-05T11:28:10.287Z,62.50
2018-11-05T11:30:39.106Z,62.40
2018-11-05T11:33:07.980Z,62.20
2018-11-05T11:35:36.799Z,62.20
2018-11-05T11:38:06.080Z,62.10
2018-11-05T11:40:34.932Z,62.00
2018-11-05T11:43:03.839Z,61.70
2018-11-05T11:45:32.648Z,61.60
2018-11-05T11:48:01.680Z,61.40
2018-11-05T11:50:30.546Z,61.50
2018-11-05T11:52:59.460Z,61.30
2018-11-05T11:55:28.282Z,61.00
2018-11-05T11:57:57.159Z,60.90
2018-11-05T12:00:26.599Z,60.80
2018-11-05T12:02:55.420Z,60.70
2018-11-05T12:05:24.344Z,60.40
2018-11-05T12:07:53.150Z,60.30
2018-11-05T12:10:23.702Z,60.20
2018-11-05T12:12:52.558Z,60.10
2018-11-05T12:15:22.234Z,60.00
2018-11-05T12:17:52.018Z,59.80
2018-11-05T12:20:22.057Z,59.70
2018-11-05T12:22:51.422Z,59.70
2018-11-05T12:25:20.364Z,59.60
2018-11-05T12:27:49.150Z,59.60
2018-11-05T12:30:19.639Z,59.60
2018-11-05T12:32:49.855Z,59.50
2018-11-05T12:35:18.730Z,59.80
2018-11-05T12:37:48.659Z,59.40
2018-11-05T12:40:18.715Z,59.00
2018-11-05T12:42:48.596Z,59.60
2018-11-05T12:45:17.462Z,59.40
2018-11-05T12:47:46.378Z,59.40
2018-11-05T12:50:20.027Z,60.20
2018-11-05T12:52:49.927Z,59.40
2018-11-05T12:55:18.792Z,59.30
2018-11-05T12:57:48.023Z,59.20
2018-11-05T13:00:19.439Z,59.20
2018-11-05T13:02:54.716Z,59.10
2018-11-05T13:05:24.939Z,59.10
2018-11-05T13:07:53.939Z,59.10
2018-11-05T13:10:23.032Z,59.10
2018-11-05T13:12:52.382Z,59.20
2018-11-05T13:15:21.296Z,59.20
2018-11-05T13:17:50.114Z,59.10
2018-11-05T13:20:20.198Z,59.30
2018-11-05T13:22:49.143Z,59.30
2018-11-05T13:25:17.905Z,59.40
2018-11-05T13:27:48.715Z,59.40
2018-11-05T13:30:17.844Z,59.40
2018-11-05T13:32:46.905Z,59.50
2018-11-05T13:35:17.318Z,59.60
2018-11-05T13:37:46.408Z,59.10
2018-11-05T13:40:16.431Z,59.60
2018-11-05T13:42:45.738Z,59.50
2018-11-05T13:45:15.148Z,59.60
2018-11-05T13:47:44.542Z,59.60
2018-11-05T13:50:13.474Z,59.60
2018-11-05T13:52:42.204Z,59.50
2018-11-05T13:55:15.008Z,59.60
2018-11-05T13:57:45.151Z,59.70
2018-11-05T14:00:16.277Z,59.60
2018-11-05T14:02:45.217Z,59.70
2018-11-05T14:05:14.763Z,59.70
2018-11-05T14:07:43.683Z,59.70
2018-11-05T14:10:18.723Z,59.80
2018-11-05T14:12:48.246Z,59.70
2018-11-05T14:15:17.057Z,59.80
2018-11-05T14:17:46.242Z,59.90
2018-11-05T14:20:16.234Z,59.90
2018-11-05T14:22:45.105Z,59.90
2018-11-05T14:25:15.280Z,60.00
2018-11-05T14:27:46.492Z,60.00
2018-11-05T14:30:15.300Z,60.20
2018-11-05T14:32:45.262Z,60.10
2018-11-05T14:35:15.191Z,60.20
2018-11-05T14:37:44.052Z,60.20
2018-11-05T14:40:14.313Z,60.20
2018-11-05T14:42:43.176Z,60.30
2018-11-05T14:45:16.091Z,60.40
2018-11-05T14:47:45.783Z,60.40
2018-11-05T14:50:16.707Z,60.40
2018-11-05T14:52:45.523Z,60.60
2018-11-05T14:55:16.799Z,60.60
2018-11-05T14:57:46.700Z,60.60
2018-11-05T15:00:18.175Z,60.50
2018-11-05T15:02:47.671Z,60.60
2018-11-05T15:05:17.222Z,60.70
2018-11-05T15:07:46.747Z,60.70
2018-11-05T15:10:19.026Z,60.70
2018-11-05T15:12:48.517Z,61.00
2018-11-05T15:15:17.916Z,60.70
2018-11-05T15:17:47.119Z,60.20
2018-11-05T15:20:17.598Z,60.90
2018-11-05T15:22:46.172Z,60.90
2018-11-05T15:25:15.335Z,60.90
2018-11-05T15:27:44.202Z,60.90
2018-11-05T15:30:15.895Z,61.10
2018-11-05T15:32:44.821Z,61.10
2018-11-05T15:35:14.209Z,61.10
2018-11-05T15:37:43.468Z,61.10
2018-11-05T15:40:14.363Z,61.10
2018-11-05T15:42:43.207Z,61.20
2018-11-05T15:45:13.239Z,61.20
2018-11-05T15:47:42.550Z,61.30
2018-11-05T15:50:14.315Z,61.30
2018-11-05T15:52:43.406Z,61.40
2018-11-05T15:55:12.354Z,61.50
2018-11-05T15:57:41.523Z,62.20
2018-11-05T16:00:16.758Z,61.60
2018-11-05T16:02:47.551Z,61.80
2018-11-05T16:05:16.778Z,61.80
2018-11-05T16:07:45.919Z,61.80
2018-11-05T16:10:14.947Z,61.90
2018-11-05T16:12:43.770Z,62.00
2018-11-05T16:15:13.162Z,62.10
2018-11-05T16:17:42.310Z,62.20
2018-11-05T16:20:13.647Z,62.40
2018-11-05T16:22:42.540Z,62.50
2018-11-05T16:25:11.417Z,62.50
2018-11-05T16:27:40.279Z,62.70
2018-11-05T16:30:11.579Z,62.80
2018-11-05T16:32:40.697Z,63.60
2018-11-05T16:35:09.651Z,63.00
2018-11-05T16:37:38.378Z,63.20
2018-11-05T16:42:40.230Z,62.70
2018-11-05T16:45:09.861Z,63.70
2018-11-05T16:47:39.213Z,64.30
2018-11-05T16:50:27.282Z,63.80
2018-11-05T16:52:56.147Z,63.90
2018-11-05T16:55:25.275Z,64.10
2018-11-05T16:57:54.137Z,64.20
2018-11-05T17:00:23.417Z,64.30
2018-11-05T17:02:52.287Z,64.50
2018-11-05T17:05:21.361Z,64.50
2018-11-05T17:07:50.200Z,64.60
2018-11-05T17:10:19.026Z,64.70
2018-11-05T17:12:47.862Z,64.70
2018-11-05T17:15:17.224Z,64.70
2018-11-05T17:17:46.147Z,64.80
2018-11-05T17:20:16.340Z,64.90
2018-11-05T17:22:45.646Z,64.90
2018-11-05T17:25:14.934Z,65.00
2018-11-05T17:27:44.419Z,65.10
2018-11-05T17:30:17.271Z,65.20
2018-11-05T17:32:46.131Z,65.30
2018-11-05T17:35:15.514Z,65.30
2018-11-05T17:37:44.897Z,65.40
2018-11-05T17:40:16.144Z,65.40
2018-11-05T17:42:44.887Z,65.50
2018-11-05T17:45:15.326Z,65.60
2018-11-05T17:47:44.474Z,65.60
2018-11-05T17:50:15.145Z,65.60
2018-11-05T17:52:44.306Z,65.70
2018-11-05T17:55:14.234Z,65.70
2018-11-05T17:57:44.347Z,65.90
2018-11-05T18:00:15.390Z,66.00
2018-11-05T18:02:44.242Z,66.00
2018-11-05T18:05:13.115Z,66.00
2018-11-05T18:07:43.486Z,65.90
2018-11-05T18:10:12.354Z,66.00
2018-11-05T18:12:41.287Z,66.60
2018-11-05T18:15:11.510Z,66.10
2018-11-05T18:17:40.891Z,66.20
2018-11-05T18:20:11.415Z,66.30
2018-11-05T18:22:40.414Z,66.40
2018-11-05T18:25:11.732Z,66.50
2018-11-05T18:27:40.580Z,66.50
2018-11-05T18:30:10.547Z,66.50
2018-11-05T18:32:39.381Z,66.60
2018-11-05T18:35:10.470Z,66.60
2018-11-05T18:37:39.423Z,66.80
2018-11-05T18:40:11.272Z,66.80
2018-11-05T18:42:40.558Z,66.80
2018-11-05T18:45:09.631Z,66.80
2018-11-05T18:47:39.458Z,66.90
2018-11-05T18:50:11.557Z,66.90
2018-11-05T18:52:40.520Z,67.10
2018-11-05T18:55:11.155Z,67.10
2018-11-05T18:57:40.275Z,67.10
2018-11-05T19:00:23.074Z,67.10
2018-11-05T19:02:52.786Z,67.20
2018-11-05T19:05:22.487Z,67.20
2018-11-05T19:07:51.715Z,67.20
2018-11-05T19:10:20.710Z,67.30
2018-11-05T19:12:50.284Z,67.30
2018-11-05T19:15:19.263Z,67.20
2018-11-05T19:17:48.724Z,67.50
2018-11-05T19:20:17.888Z,67.20
2018-11-05T19:22:47.058Z,67.30
2018-11-05T19:25:16.506Z,67.20
2018-11-05T19:27:45.422Z,67.20
2018-11-05T19:30:18.554Z,67.30
2018-11-05T19:32:47.354Z,67.40
2018-11-05T19:35:16.224Z,67.40
2018-11-05T19:37:45.110Z,67.30
2018-11-05T19:40:14.803Z,67.20
2018-11-05T19:42:44.606Z,67.20
2018-11-05T19:45:15.650Z,67.20
2018-11-05T19:47:44.470Z,67.90
2018-11-05T19:50:15.431Z,67.10
2018-11-05T19:52:45.547Z,67.10
2018-11-05T19:55:15.566Z,67.00
2018-11-05T19:57:45.279Z,67.00
2018-11-05T20:00:18.959Z,67.00
2018-11-05T20:02:48.506Z,66.90
2018-11-05T20:05:17.735Z,66.90
2018-11-05T20:07:47.275Z,66.90
2018-11-05T20:10:16.436Z,66.80
2018-11-05T20:12:45.887Z,66.80
2018-11-05T20:15:14.998Z,66.60
2018-11-05T20:17:44.700Z,66.50
2018-11-05T20:20:14.924Z,66.40
2018-11-05T20:22:43.987Z,66.30
2018-11-05T20:25:12.898Z,66.30
2018-11-05T20:27:42.211Z,66.20
2018-11-05T20:30:15.484Z,66.10
2018-11-05T20:32:45.560Z,66.10
2018-11-05T20:35:14.201Z,66.00
2018-11-05T20:37:43.020Z,66.00
2018-11-05T20:40:13.455Z,65.90
2018-11-05T20:42:43.358Z,65.80
2018-11-05T20:45:12.251Z,65.70
2018-11-05T20:47:41.163Z,65.70
2018-11-05T20:50:10.843Z,65.60
2018-11-05T20:52:40.435Z,65.50
2018-11-05T20:55:10.471Z,65.40
2018-11-05T20:57:39.664Z,64.60
2018-11-05T21:00:11.012Z,65.40
2018-11-05T21:02:40.506Z,65.30
2018-11-05T21:05:09.348Z,65.20
2018-11-05T21:07:38.596Z,65.10
2018-11-05T21:10:10.774Z,65.10
2018-11-05T21:12:41.158Z,65.10
2018-11-05T21:15:14.802Z,65.10
2018-11-05T21:17:44.481Z,65.00
2018-11-05T21:20:13.714Z,65.00
2018-11-05T21:22:42.704Z,64.80
2018-11-05T21:25:11.469Z,64.80
2018-11-05T21:27:41.099Z,64.70
2018-11-05T21:30:13.087Z,64.60
2018-11-05T21:32:41.992Z,64.60
2018-11-05T21:35:13.070Z,64.30
2018-11-05T21:37:42.234Z,64.30
2018-11-05T21:40:12.216Z,64.30
2018-11-05T21:42:41.006Z,64.20
2018-11-05T21:45:11.342Z,64.20
2018-11-05T21:47:40.610Z,64.10
2018-11-05T21:50:11.770Z,64.00
2018-11-05T21:52:41.558Z,63.80
2018-11-05T21:55:10.458Z,63.80
2018-11-05T21:57:41.732Z,63.80
2018-11-05T22:00:20.144Z,63.70
2018-11-05T22:02:54.403Z,63.70
2018-11-05T22:05:23.519Z,63.60
2018-11-05T22:07:52.347Z,63.60
2018-11-05T22:10:21.276Z,63.50
2018-11-05T22:12:50.954Z,63.40
2018-11-05T22:15:20.031Z,63.40
2018-11-05T22:17:48.860Z,63.30
2018-11-05T22:20:17.720Z,63.30
2018-11-05T22:22:46.561Z,63.10
2018-11-05T22:25:15.389Z,63.10
2018-11-05T22:27:44.247Z,63.00
2018-11-05T22:30:13.381Z,62.60
2018-11-05T22:32:42.229Z,62.70
2018-11-05T22:35:11.356Z,62.70
2018-11-05T22:37:40.205Z,62.50
2018-11-05T22:40:11.519Z,62.40
2018-11-05T22:42:40.359Z,62.20
2018-11-05T22:45:10.247Z,62.20
2018-11-05T22:47:39.069Z,62.10
2018-11-05T22:50:09.373Z,62.00
2018-11-05T22:52:38.650Z,62.10
2018-11-05T22:55:08.058Z,61.90
2018-11-05T22:57:37.020Z,61.80
2018-11-05T23:00:17.752Z,61.90
2018-11-05T23:02:51.894Z,61.80
2018-11-05T23:05:21.088Z,61.60
2018-11-05T23:07:50.377Z,61.50
2018-11-05T23:10:19.240Z,61.40
2018-11-05T23:12:48.088Z,61.30
2018-11-05T23:15:17.412Z,61.30
2018-11-05T23:17:46.667Z,61.30
2018-11-05T23:20:15.496Z,61.20
2018-11-05T23:22:44.543Z,61.20
2018-11-05T23:25:13.963Z,61.30
2018-11-05T23:27:42.766Z,61.20
2018-11-05T23:30:13.167Z,61.10
2018-11-05T23:32:42.274Z,61.20
2018-11-05T23:35:11.682Z,61.10
2018-11-05T23:37:41.297Z,61.00
2018-11-05T23:40:10.617Z,61.70
2018-11-05T23:42:39.986Z,61.00
2018-11-05T23:45:11.983Z,61.00
2018-11-05T23:47:40.986Z,61.10
2018-11-05T23:50:10.240Z,61.00
2018-11-05T23:52:39.108Z,61.10
2018-11-05T23:55:09.468Z,61.10
2018-11-05T23:57:38.297Z,61.20
